createdAt,value
2022-09-15T00:00:00.311Z,79
2022-09-15T00:10:00.298Z,80
2022-09-15T00:20:00.299Z,80
2022-09-15T00:30:00.314Z,80
2022-09-15T00:40:00.502Z,80
2022-09-15T00:50:00.276Z,81
2022-09-15T01:00:00.290Z,81
2022-09-15T01:10:00.289Z,81
2022-09-15T01:20:00.369Z,81
2022-09-15T01:30:00.290Z,81
2022-09-15T01:40:00.499Z,81
2022-09-15T01:50:00.338Z,81
2022-09-15T02:00:00.298Z,81
2022-09-15T02:10:00.385Z,81
2022-09-15T02:20:00.392Z,82
2022-09-15T02:30:00.282Z,82
2022-09-15T02:40:00.781Z,82
2022-09-15T02:50:00.318Z,82
2022-09-15T03:00:00.352Z,82
2022-09-15T03:10:00.297Z,82
2022-09-15T03:20:00.312Z,82
2022-09-15T03:30:00.292Z,82
2022-09-15T03:40:00.507Z,82
2022-09-15T03:50:00.304Z,82
2022-09-15T04:00:00.361Z,82
2022-09-15T04:10:00.306Z,82
2022-09-15T04:20:00.297Z,82
2022-09-15T04:30:00.305Z,82
2022-09-15T04:40:00.527Z,83
2022-09-15T04:50:00.301Z,83
2022-09-15T05:00:00.357Z,83
2022-09-15T05:10:00.435Z,83
2022-09-15T05:20:00.306Z,83
2022-09-15T05:30:35.495Z,83
2022-09-15T05:40:02.424Z,83
2022-09-15T05:50:00.287Z,83
2022-09-15T06:00:00.360Z,83
2022-09-15T06:10:00.288Z,84
2022-09-15T06:20:00.325Z,84
2022-09-15T06:30:00.380Z,84
2022-09-15T06:40:00.464Z,84
2022-09-15T06:50:00.336Z,84
2022-09-15T07:00:00.352Z,84
2022-09-15T07:10:00.311Z,84
2022-09-15T07:20:00.311Z,84
2022-09-15T07:30:00.323Z,84
2022-09-15T07:40:00.599Z,84
2022-09-15T07:50:00.623Z,84
2022-09-15T08:00:00.356Z,84
2022-09-15T08:10:00.283Z,84
2022-09-15T08:20:00.286Z,84
2022-09-15T08:30:00.344Z,84
2022-09-15T08:40:00.519Z,83
2022-09-15T08:50:00.273Z,82
2022-09-15T09:00:00.360Z,81
2022-09-15T09:10:00.368Z,81
2022-09-15T09:20:00.328Z,81
2022-09-15T09:30:00.323Z,80
2022-09-15T09:40:00.478Z,80
2022-09-15T09:50:00.369Z,80
2022-09-15T10:00:00.353Z,80
2022-09-15T10:10:00.696Z,80
2022-09-15T10:20:00.330Z,80
2022-09-15T10:30:00.306Z,80
2022-09-15T10:40:00.476Z,80
2022-09-15T10:50:00.292Z,79
2022-09-15T11:00:00.355Z,78
2022-09-15T11:10:00.293Z,77
2022-09-15T11:20:00.291Z,77
2022-09-15T11:30:00.306Z,78
2022-09-15T11:40:00.632Z,79
2022-09-15T11:50:00.281Z,79
2022-09-15T12:00:00.473Z,80
2022-09-15T12:10:00.356Z,81
2022-09-15T12:20:00.339Z,82
2022-09-15T12:30:00.368Z,83
2022-09-15T12:40:00.536Z,83
2022-09-15T12:50:00.287Z,82
2022-09-15T13:00:00.289Z,82
2022-09-15T13:10:00.289Z,81
2022-09-15T13:20:00.376Z,81
2022-09-15T13:30:00.301Z,81
2022-09-15T13:40:00.603Z,80
2022-09-15T13:50:00.310Z,80
2022-09-15T14:00:00.526Z,80
2022-09-15T14:10:00.350Z,80
2022-09-15T14:20:00.324Z,80
2022-09-15T14:30:00.354Z,80
2022-09-15T14:40:00.598Z,80
2022-09-15T14:50:00.299Z,80
2022-09-15T15:00:00.594Z,81
2022-09-15T15:10:00.329Z,80
2022-09-15T15:20:00.376Z,80
2022-09-15T15:30:00.310Z,81
2022-09-15T15:40:00.551Z,81
2022-09-15T15:50:13.145Z,81
2022-09-15T16:00:00.290Z,81
2022-09-15T16:10:00.301Z,81
2022-09-15T16:20:00.395Z,81
2022-09-15T16:30:00.320Z,81
2022-09-15T16:40:00.411Z,81
2022-09-15T16:50:00.344Z,81
2022-09-15T17:00:00.339Z,82
2022-09-15T17:10:00.294Z,82
2022-09-15T17:20:00.264Z,82
2022-09-15T17:30:00.304Z,82
2022-09-15T17:40:00.431Z,82
2022-09-15T17:50:00.300Z,82
2022-09-15T18:00:00.360Z,82
2022-09-15T18:10:00.315Z,82
2022-09-15T18:20:00.304Z,82
2022-09-15T18:30:00.315Z,83
2022-09-15T18:40:00.435Z,83
2022-09-15T18:50:00.314Z,83
2022-09-15T19:00:00.318Z,83
2022-09-15T19:10:00.354Z,83
2022-09-15T19:20:00.333Z,83
2022-09-15T19:30:00.346Z,83
2022-09-15T19:40:00.477Z,83
2022-09-15T19:50:00.291Z,83
2022-09-15T20:00:00.312Z,83
2022-09-15T20:10:00.641Z,83
2022-09-15T20:20:00.357Z,84
2022-09-15T20:30:00.302Z,84
2022-09-15T20:40:00.418Z,84
2022-09-15T20:50:00.311Z,84
2022-09-15T21:00:00.303Z,84
2022-09-15T21:10:00.323Z,84
2022-09-15T21:20:00.286Z,84
2022-09-15T21:30:00.396Z,84
2022-09-15T21:40:00.531Z,84
2022-09-15T21:50:00.302Z,84
2022-09-15T22:00:00.358Z,84
2022-09-15T22:10:00.346Z,84
2022-09-15T22:20:00.317Z,84
2022-09-15T22:30:00.305Z,84
2022-09-15T22:40:00.578Z,84
2022-09-15T22:50:00.299Z,84
2022-09-15T23:00:00.323Z,84
2022-09-15T23:10:00.327Z,84
2022-09-15T23:20:00.327Z,84
2022-09-15T23:30:00.307Z,84
2022-09-15T23:40:00.448Z,84
2022-09-15T23:50:00.409Z,84
